Time;durP1;ratioP1;P1;durP2;ratioP2;P2;SDS_P1;SDS_P2;PMS_P1;PMS_P2;Temp;Humidity;BMP_temperature;BMP_pressure;BME280_temperature;BME280_humidity;BME280_pressure;Samples;Min_cycle;Max_cycle;Signal;HPM_P1;HPM_P2
2023/01/02 00:02:23;;;;;;;;;;;;;;;11.17;100.00;100926.81;5083113;28;19928;-62
2023/01/02 00:04:48;;;;;;;;;;;;;;;11.26;100.00;100919.63;5084037;28;19939;-61
2023/01/02 00:07:13;;;;;;;;;;;;;;;11.30;100.00;100920.13;5084824;28;19920;-62
2023/01/02 00:09:39;;;;;;;;;;;;;;;11.31;100.00;100933.25;5081555;28;20386;-62
2023/01/02 00:12:04;;;;;;;;;;;;;;;11.36;100.00;100936.22;5081372;28;20392;-61
2023/01/02 00:14:29;;;;;;;;;;;;;;;11.40;100.00;100929.53;5076227;28;20000;-63
2023/01/02 00:16:54;;;;;;;;;;;;;;;11.42;100.00;100935.50;5083806;28;20371;-61
2023/01/02 00:19:19;;;;;;;;;;;;;;;11.45;100.00;100924.50;5083051;28;20053;-62
2023/01/02 00:21:44;;;;;;;;;;;;;;;11.46;100.00;100922.69;5092824;28;19912;-61
2023/01/02 00:24:10;;;;;;;;;;;;;;;11.48;100.00;100918.03;5077394;28;20371;-61
2023/01/02 00:26:35;;;;;;;;;;;;;;;11.54;100.00;100914.66;5082469;28;20005;-65
2023/01/02 00:29:00;;;;;;;;;;;;;;;11.57;100.00;100921.47;5083642;28;20007;-61
2023/01/02 00:31:26;;;;;;;;;;;;;;;11.55;100.00;100912.81;5082232;28;20375;-61
2023/01/02 00:33:51;;;;;;;;;;;;;;;11.56;100.00;100903.84;5071412;28;19928;-62
2023/01/02 00:36:16;;;;;;;;;;;;;;;11.58;100.00;100908.00;5090564;28;19919;-62
2023/01/02 00:38:41;;;;;;;;;;;;;;;11.58;100.00;100900.03;5084171;28;19920;-59
2023/01/02 00:41:06;;;;;;;;;;;;;;;11.59;100.00;100888.38;5081132;28;19966;-62
2023/01/02 00:43:31;;;;;;;;;;;;;;;11.61;100.00;100901.50;5088197;28;19916;-61
2023/01/02 00:45:57;;;;;;;;;;;;;;;11.62;100.00;100901.34;5089621;28;19978;-61
2023/01/02 00:48:22;;;;;;;;;;;;;;;11.65;99.95;100902.81;5085043;28;20458;-64
2023/01/02 00:50:48;;;;;;;;;;;;;;;11.69;99.87;100901.44;5078503;28;19970;-62
2023/01/02 00:53:13;;;;;;;;;;;;;;;11.76;99.49;100905.88;5089103;28;19916;-62
2023/01/02 00:55:38;;;;;;;;;;;;;;;11.82;99.17;100899.03;5087981;28;20002;-63
2023/01/02 00:58:03;;;;;;;;;;;;;;;11.84;98.54;100886.41;5088422;28;19916;-59
2023/01/02 01:00:28;;;;;;;;;;;;;;;11.85;98.40;100887.22;5084128;28;20395;-62
2023/01/02 01:02:55;;;;;;;;;;;;;;;11.87;98.10;100885.25;5076776;28;19921;-61
2023/01/02 01:05:20;;;;;;;;;;;;;;;11.89;97.70;100877.91;5080728;28;19969;-61
2023/01/02 01:07:45;;;;;;;;;;;;;;;11.92;97.95;100880.22;5069574;28;20469;-61
2023/01/02 01:10:10;;;;;;;;;;;;;;;11.89;97.47;100883.22;5087956;28;19919;-62
2023/01/02 01:12:35;;;;;;;;;;;;;;;11.88;97.28;100877.06;5082127;28;20389;-61
2023/01/02 01:15:01;;;;;;;;;;;;;;;11.91;97.16;100876.72;5082853;28;19923;-60
2023/01/02 01:17:26;;;;;;;;;;;;;;;11.94;97.28;100875.53;5091281;28;19981;-61
2023/01/02 01:19:51;;;;;;;;;;;;;;;11.94;97.12;100881.69;5083864;28;19916;-62
2023/01/02 01:22:16;;;;;;;;;;;;;;;11.98;96.91;100877.66;5077968;28;19916;-61
2023/01/02 01:24:41;;;;;;;;;;;;;;;12.03;96.58;100874.44;5084410;28;19919;-62
2023/01/02 01:27:06;;;;;;;;;;;;;;;12.05;96.62;100872.44;5091409;28;19916;-61
2023/01/02 01:29:32;;;;;;;;;;;;;;;12.05;96.35;100877.75;5091955;28;20710;-61
2023/01/02 01:31:57;;;;;;;;;;;;;;;12.03;96.67;100877.94;5080269;28;19916;-62
2023/01/02 01:34:22;;;;;;;;;;;;;;;12.04;96.91;100871.59;5095694;28;20322;-62
2023/01/02 01:36:47;;;;;;;;;;;;;;;12.06;97.05;100879.41;5080283;28;19920;-63
2023/01/02 01:39:12;;;;;;;;;;;;;;;12.06;97.13;100876.75;5085351;28;20033;-61
2023/01/02 01:41:37;;;;;;;;;;;;;;;12.08;97.02;100872.06;5076979;28;19999;-62
2023/01/02 01:44:34;;;;;;;;;;;;;;;12.12;97.05;100880.53;5103843;28;19996;-61
2023/01/02 01:47:00;;;;;;;;;;;;;;;12.10;97.69;100886.03;5085916;28;19916;-63
2023/01/02 01:49:27;;;;;;;;;;;;;;;12.07;97.41;100881.88;5078515;28;19932;-62
2023/01/02 01:51:55;;;;;;;;;;;;;;;12.09;98.17;100879.03;5076286;28;19974;-62
2023/01/02 01:54:26;;;;;;;;;;;;;;;12.08;98.18;100880.88;5079057;28;19916;-61
2023/01/02 01:56:55;;;;;;;;;;;;;;;12.06;98.37;100882.06;5084780;28;19926;-63
2023/01/02 01:59:21;;;;;;;;;;;;;;;12.04;98.71;100887.56;5091522;28;19964;-61
2023/01/02 02:01:48;;;;;;;;;;;;;;;12.03;98.76;100901.06;5081275;28;19920;-63
2023/01/02 02:04:13;;;;;;;;;;;;;;;12.04;99.05;100890.22;5085772;28;20132;-62
2023/01/02 02:06:39;;;;;;;;;;;;;;;12.02;99.57;100896.75;5082131;28;20443;-61
2023/01/02 02:09:13;;;;;;;;;;;;;;;12.03;99.72;100890.41;5083602;28;20375;-61
2023/01/02 02:11:38;;;;;;;;;;;;;;;12.03;99.60;100893.06;5089415;28;19923;-61
2023/01/02 02:14:04;;;;;;;;;;;;;;;12.04;99.98;100886.75;5081631;28;19916;-62
2023/01/02 02:16:35;;;;;;;;;;;;;;;12.03;100.00;100893.91;5075582;28;19947;-62
2023/01/02 02:19:13;;;;;;;;;;;;;;;12.05;100.00;100891.91;5090870;28;19951;-62
2023/01/02 02:21:53;;;;;;;;;;;;;;;12.06;100.00;100893.53;5102007;28;19916;-62
2023/01/02 02:24:31;;;;;;;;;;;;;;;12.07;100.00;100894.38;5084211;28;19969;-62
2023/01/02 02:27:15;;;;;;;;;;;;;;;12.10;100.00;100905.50;5085662;28;19932;-63
2023/01/02 02:29:49;;;;;;;;;;;;;;;12.08;100.00;100899.50;5086255;28;20553;-61
2023/01/02 02:32:31;;;;;;;;;;;;;;;12.07;100.00;100897.88;5088572;28;19974;-62
2023/01/02 02:35:04;;;;;;;;;;;;;;;12.07;100.00;100903.19;5093628;28;19917;-61
2023/01/02 02:37:35;;;;;;;;;;;;;;;12.07;100.00;100891.72;5085608;28;19942;-61
2023/01/02 02:40:15;;;;;;;;;;;;;;;12.05;100.00;100899.03;5082923;28;19917;-60
2023/01/02 02:43:07;;;;;;;;;;;;;;;12.02;100.00;100896.75;5087224;28;19959;-63
2023/01/02 02:45:38;;;;;;;;;;;;;;;12.04;100.00;100900.88;5082486;28;20379;-61
2023/01/02 02:48:11;;;;;;;;;;;;;;;12.06;100.00;100890.06;5077841;28;20390;-61
2023/01/02 02:50:48;;;;;;;;;;;;;;;12.07;100.00;100892.53;5083507;28;20725;-62
2023/01/02 02:53:19;;;;;;;;;;;;;;;12.06;100.00;100890.88;5082202;28;20070;-64
2023/01/02 02:55:47;;;;;;;;;;;;;;;12.07;100.00;100902.34;5080335;28;19920;-61
2023/01/02 02:58:13;;;;;;;;;;;;;;;12.06;100.00;100896.22;5087976;28;19916;-61
2023/01/02 03:00:38;;;;;;;;;;;;;;;12.06;100.00;100877.56;5085525;28;19916;-64
2023/01/02 03:03:13;;;;;;;;;;;;;;;12.06;100.00;100874.91;5079691;28;19998;-63
2023/01/02 03:05:40;;;;;;;;;;;;;;;12.06;100.00;100880.25;5085844;28;19916;-61
2023/01/02 03:08:09;;;;;;;;;;;;;;;12.08;100.00;100875.56;5081273;28;20390;-61
2023/01/02 03:10:53;;;;;;;;;;;;;;;12.10;100.00;100888.69;5090079;27;20280;-61
2023/01/02 03:13:36;;;;;;;;;;;;;;;12.17;100.00;100891.47;5076144;28;19916;-61
2023/01/02 03:16:21;;;;;;;;;;;;;;;12.19;99.67;100878.81;5077730;28;19916;-61
2023/01/02 03:19:02;;;;;;;;;;;;;;;12.20;99.94;100883.13;5083542;28;20384;-61
2023/01/02 03:21:48;;;;;;;;;;;;;;;12.20;99.76;100883.13;5087872;28;19912;-62
2023/01/02 03:24:15;;;;;;;;;;;;;;;12.19;99.58;100884.16;5077473;28;19959;-62
2023/01/02 03:26:46;;;;;;;;;;;;;;;12.17;99.45;100888.81;5076928;28;19916;-64
2023/01/02 03:29:14;;;;;;;;;;;;;;;12.20;99.35;100889.28;5084594;28;19920;-62
2023/01/02 03:31:43;;;;;;;;;;;;;;;12.22;99.20;100879.28;5075653;28;19924;-61
2023/01/02 03:34:11;;;;;;;;;;;;;;;12.27;98.68;100884.06;5081534;28;20427;-62
2023/01/02 03:36:38;;;;;;;;;;;;;;;12.28;98.66;100883.06;5079313;28;20513;-62
2023/01/02 03:39:05;;;;;;;;;;;;;;;12.27;98.51;100882.22;5087040;28;19920;-60
2023/01/02 03:41:40;;;;;;;;;;;;;;;12.26;98.42;100895.72;5090556;28;19919;-61
2023/01/02 03:44:06;;;;;;;;;;;;;;;12.25;98.46;100891.41;5093064;28;19912;-63
2023/01/02 03:46:43;;;;;;;;;;;;;;;12.20;98.56;100885.78;5079582;28;20370;-61
2023/01/02 03:49:13;;;;;;;;;;;;;;;12.20;98.96;100901.78;5084050;28;19923;-62
2023/01/02 03:51:38;;;;;;;;;;;;;;;12.15;99.12;100893.50;5088538;28;20298;-61
2023/01/02 03:54:04;;;;;;;;;;;;;;;12.13;99.16;100900.81;5084328;28;19912;-61
2023/01/02 03:56:32;;;;;;;;;;;;;;;12.11;99.59;100895.66;5081278;28;19958;-62
2023/01/02 03:59:07;;;;;;;;;;;;;;;12.10;99.50;100907.31;5092363;28;19919;-61
2023/01/02 04:01:34;;;;;;;;;;;;;;;12.10;99.73;100910.81;5081434;28;19966;-61
2023/01/02 04:04:10;;;;;;;;;;;;;;;12.10;99.75;100909.97;5083414;28;20497;-62
2023/01/02 04:06:37;;;;;;;;;;;;;;;12.05;99.85;100905.19;5087169;28;20017;-62
2023/01/02 04:09:10;;;;;;;;;;;;;;;11.91;100.00;100911.31;5091623;28;19982;-62
2023/01/02 04:11:38;;;;;;;;;;;;;;;11.73;100.00;100918.72;5078404;28;19916;-61
2023/01/02 04:14:09;;;;;;;;;;;;;;;11.60;100.00;100910.50;5091302;28;20673;-61
2023/01/02 04:16:35;;;;;;;;;;;;;;;11.54;100.00;100895.22;5079395;28;19920;-62
2023/01/02 04:19:07;;;;;;;;;;;;;;;11.53;100.00;100883.75;5078478;28;20418;-61
2023/01/02 04:21:36;;;;;;;;;;;;;;;11.57;100.00;100893.06;5080667;28;19958;-61
2023/01/02 04:24:05;;;;;;;;;;;;;;;11.63;100.00;100904.81;5085406;28;19949;-62
2023/01/02 04:26:35;;;;;;;;;;;;;;;11.63;100.00;100926.09;5089282;28;19918;-61
2023/01/02 04:29:01;;;;;;;;;;;;;;;11.65;100.00;100927.56;5086770;28;19923;-61
2023/01/02 04:31:34;;;;;;;;;;;;;;;11.68;100.00;100929.88;5088177;28;19916;-63
2023/01/02 04:34:00;;;;;;;;;;;;;;;11.68;100.00;100927.22;5079257;28;19958;-61
2023/01/02 04:36:26;;;;;;;;;;;;;;;11.73;100.00;100938.16;5077873;28;19978;-62
2023/01/02 04:38:51;;;;;;;;;;;;;;;11.74;100.00;100936.31;5078221;28;19916;-61
2023/01/02 04:41:20;;;;;;;;;;;;;;;11.73;100.00;100932.00;5072620;28;19977;-62
2023/01/02 04:43:45;;;;;;;;;;;;;;;11.72;100.00;100936.50;5080613;28;19916;-61
2023/01/02 04:46:10;;;;;;;;;;;;;;;11.73;100.00;100940.00;5087227;28;19916;-63
2023/01/02 04:48:35;;;;;;;;;;;;;;;11.73;100.00;100958.63;5081239;28;20443;-61
2023/01/02 04:51:00;;;;;;;;;;;;;;;11.73;100.00;100934.66;5071804;28;19921;-63
2023/01/02 04:53:25;;;;;;;;;;;;;;;11.71;100.00;100940.16;5082415;28;20354;-62
2023/01/02 04:55:55;;;;;;;;;;;;;;;11.73;100.00;100942.66;5084407;28;20464;-61
2023/01/02 04:58:20;;;;;;;;;;;;;;;11.74;100.00;100946.97;5080912;28;19942;-61
2023/01/02 05:00:45;;;;;;;;;;;;;;;11.74;100.00;100945.13;5077294;28;20541;-61
2023/01/02 05:03:10;;;;;;;;;;;;;;;11.74;100.00;100944.31;5080110;28;19973;-62
2023/01/02 05:05:35;;;;;;;;;;;;;;;11.76;100.00;100950.28;5077995;28;20336;-61
2023/01/02 05:08:00;;;;;;;;;;;;;;;11.81;100.00;100947.13;5084234;28;19973;-62
2023/01/02 05:10:26;;;;;;;;;;;;;;;11.83;100.00;100953.91;5076002;28;19927;-62
2023/01/02 05:12:51;;;;;;;;;;;;;;;11.86;100.00;100961.59;5087658;28;19916;-62
2023/01/02 05:15:16;;;;;;;;;;;;;;;11.87;100.00;100975.72;5078123;28;19923;-62
2023/01/02 05:17:41;;;;;;;;;;;;;;;11.91;100.00;100956.56;5076746;28;20004;-62
2023/01/02 05:20:09;;;;;;;;;;;;;;;11.91;100.00;100961.88;5080529;28;19935;-62
2023/01/02 05:25:20;;;;;;;;;;;;;;;11.97;100.00;100968.31;5075170;28;19931;-61
2023/01/02 05:27:45;;;;;;;;;;;;;;;11.98;100.00;100968.13;5076088;28;20011;-61
2023/01/02 05:30:10;;;;;;;;;;;;;;;11.98;100.00;100960.16;5071761;28;20054;-61
2023/01/02 05:32:36;;;;;;;;;;;;;;;11.97;100.00;100976.31;5086210;28;19947;-63
2023/01/02 05:35:01;;;;;;;;;;;;;;;11.96;100.00;100964.84;5084518;28;19955;-62
2023/01/02 05:37:27;;;;;;;;;;;;;;;11.95;100.00;100968.50;5096061;28;19916;-61
2023/01/02 05:39:53;;;;;;;;;;;;;;;11.93;100.00;100967.03;5090089;28;19912;-61
2023/01/02 05:42:18;;;;;;;;;;;;;;;11.91;100.00;100982.34;5092296;28;19919;-61
2023/01/02 05:44:43;;;;;;;;;;;;;;;11.90;100.00;100986.84;5081651;28;19920;-63
2023/01/02 05:47:08;;;;;;;;;;;;;;;11.91;100.00;100985.00;5092063;28;19912;-61
2023/01/02 05:49:33;;;;;;;;;;;;;;;11.91;100.00;100993.81;5076586;28;20444;-61
2023/01/02 05:51:58;;;;;;;;;;;;;;;11.91;100.00;100996.47;5089791;28;19939;-62
2023/01/02 05:54:24;;;;;;;;;;;;;;;11.92;100.00;100990.16;5087225;28;19924;-60
2023/01/02 05:56:49;;;;;;;;;;;;;;;11.90;100.00;101007.28;5091783;28;19919;-61
2023/01/02 05:59:14;;;;;;;;;;;;;;;11.89;100.00;101001.16;5090093;28;20014;-64
2023/01/02 06:01:40;;;;;;;;;;;;;;;11.85;100.00;101001.63;5076675;28;20376;-62
2023/01/02 06:04:05;;;;;;;;;;;;;;;11.76;100.00;101012.31;5089539;28;20368;-62
2023/01/02 06:06:32;;;;;;;;;;;;;;;11.71;100.00;101014.66;5078211;28;19912;-62
2023/01/02 06:08:58;;;;;;;;;;;;;;;11.67;100.00;101008.03;5085919;28;19977;-62
2023/01/02 06:11:23;;;;;;;;;;;;;;;11.65;100.00;101007.38;5082350;28;19912;-61
2023/01/02 06:13:48;;;;;;;;;;;;;;;11.59;100.00;101007.25;5079042;28;19922;-63
2023/01/02 06:16:14;;;;;;;;;;;;;;;11.49;100.00;101010.91;5085302;28;20341;-61
2023/01/02 06:18:39;;;;;;;;;;;;;;;11.42;100.00;101030.41;5088169;28;20007;-61
2023/01/02 06:21:09;;;;;;;;;;;;;;;11.33;100.00;101076.63;5097841;28;20375;-62
2023/01/02 06:23:35;;;;;;;;;;;;;;;11.19;100.00;101099.41;5099793;28;19926;-61
2023/01/02 06:26:03;;;;;;;;;;;;;;;10.82;100.00;101105.25;5083561;28;20327;-61
2023/01/02 06:28:28;;;;;;;;;;;;;;;10.47;100.00;101104.56;5084533;28;20407;-61
2023/01/02 06:30:57;;;;;;;;;;;;;;;10.34;100.00;101120.09;5085779;28;19920;-61
2023/01/02 06:33:22;;;;;;;;;;;;;;;10.12;100.00;101120.66;5081282;28;19943;-61
2023/01/02 06:35:55;;;;;;;;;;;;;;;9.97;100.00;101128.41;5080763;28;20368;-61
2023/01/02 06:38:20;;;;;;;;;;;;;;;9.82;100.00;101132.66;5079297;28;19974;-62
2023/01/02 06:40:51;;;;;;;;;;;;;;;9.75;100.00;101136.94;5085709;28;19916;-61
2023/01/02 06:43:16;;;;;;;;;;;;;;;9.68;100.00;101146.50;5078449;28;20296;-62
2023/01/02 06:45:41;;;;;;;;;;;;;;;9.62;100.00;101159.41;5076721;28;19912;-61
2023/01/02 06:48:06;;;;;;;;;;;;;;;9.65;100.00;101162.72;5081214;28;20003;-60
2023/01/02 06:50:31;;;;;;;;;;;;;;;9.58;100.00;101154.56;5085715;28;20337;-63
2023/01/02 06:52:57;;;;;;;;;;;;;;;9.52;100.00;101165.78;5082536;28;19958;-61
2023/01/02 06:55:22;;;;;;;;;;;;;;;9.49;100.00;101174.88;5083839;28;20407;-63
2023/01/02 06:57:47;;;;;;;;;;;;;;;9.51;100.00;101182.69;5089691;28;20003;-61
2023/01/02 07:00:12;;;;;;;;;;;;;;;9.48;100.00;101180.34;5083359;28;20011;-62
2023/01/02 07:02:39;;;;;;;;;;;;;;;9.40;100.00;101188.25;5081304;28;20380;-61
2023/01/02 07:05:04;;;;;;;;;;;;;;;9.40;100.00;101199.69;5084967;28;19966;-64
2023/01/02 07:07:29;;;;;;;;;;;;;;;9.35;100.00;101209.91;5077026;28;19971;-61
2023/01/02 07:09:56;;;;;;;;;;;;;;;9.28;100.00;101211.53;5079815;28;19916;-61
2023/01/02 07:12:21;;;;;;;;;;;;;;;9.28;100.00;101222.13;5085382;28;19982;-61
2023/01/02 07:14:46;;;;;;;;;;;;;;;9.28;100.00;101227.41;5078067;28;20416;-61
2023/01/02 07:17:11;;;;;;;;;;;;;;;9.29;100.00;101234.38;5083320;28;19961;-60
2023/01/02 07:19:36;;;;;;;;;;;;;;;9.26;100.00;101232.88;5078136;28;20367;-61
2023/01/02 07:22:02;;;;;;;;;;;;;;;9.27;100.00;101241.66;5078065;28;19977;-61
2023/01/02 07:24:28;;;;;;;;;;;;;;;9.24;100.00;101253.38;5081566;28;19931;-62
2023/01/02 07:26:53;;;;;;;;;;;;;;;9.19;100.00;101271.53;5086621;28;19916;-61
2023/01/02 07:29:18;;;;;;;;;;;;;;;9.22;100.00;101270.41;5080825;28;19924;-61
2023/01/02 07:31:43;;;;;;;;;;;;;;;9.24;100.00;101271.91;5074062;28;20065;-62
2023/01/02 07:34:08;;;;;;;;;;;;;;;9.21;100.00;101289.94;5081346;28;19916;-62
2023/01/02 07:36:34;;;;;;;;;;;;;;;9.28;100.00;101291.84;5085544;28;19927;-61
2023/01/02 07:38:59;;;;;;;;;;;;;;;9.28;100.00;101301.63;5082919;28;19997;-63
2023/01/02 07:41:24;;;;;;;;;;;;;;;9.24;100.00;101298.41;5079613;28;20408;-61
2023/01/02 07:43:52;;;;;;;;;;;;;;;9.21;100.00;101298.72;5082749;28;19970;-61
2023/01/02 07:46:18;;;;;;;;;;;;;;;9.20;100.00;101298.88;5078063;28;20624;-61
2023/01/02 07:48:44;;;;;;;;;;;;;;;9.15;100.00;101312.56;5080765;28;19929;-63
2023/01/02 07:51:09;;;;;;;;;;;;;;;9.18;100.00;101316.75;5079436;28;20291;-61
2023/01/02 07:53:35;;;;;;;;;;;;;;;9.17;100.00;101323.03;5083488;28;20467;-58
2023/01/02 07:56:00;;;;;;;;;;;;;;;9.19;100.00;101336.94;5086928;28;20515;-63
2023/01/02 07:58:26;;;;;;;;;;;;;;;9.15;100.00;101343.53;5081901;28;19921;-62
2023/01/02 08:00:52;;;;;;;;;;;;;;;9.11;100.00;101344.81;5081974;28;19927;-61
2023/01/02 08:03:18;;;;;;;;;;;;;;;9.16;100.00;101358.44;5082742;28;20501;-63
2023/01/02 08:05:43;;;;;;;;;;;;;;;9.15;100.00;101348.84;5083225;28;19973;-61
2023/01/02 08:08:08;;;;;;;;;;;;;;;9.12;100.00;101365.88;5073531;28;19920;-61
2023/01/02 08:10:35;;;;;;;;;;;;;;;9.15;100.00;101367.38;5079636;28;20380;-61
2023/01/02 08:13:00;;;;;;;;;;;;;;;9.14;100.00;101376.31;5077356;28;20368;-62
2023/01/02 08:15:25;;;;;;;;;;;;;;;9.11;100.00;101376.63;5083345;28;19923;-61
2023/01/02 08:17:50;;;;;;;;;;;;;;;9.13;100.00;101390.56;5078935;28;19920;-61
2023/01/02 08:20:16;;;;;;;;;;;;;;;9.09;100.00;101391.81;5085482;28;19916;-62
2023/01/02 08:22:41;;;;;;;;;;;;;;;9.09;100.00;101407.72;5079800;28;19977;-61
2023/01/02 08:25:07;;;;;;;;;;;;;;;9.02;100.00;101396.06;5079974;28;20272;-61
2023/01/02 08:27:32;;;;;;;;;;;;;;;9.02;100.00;101406.66;5085736;28;20413;-61
2023/01/02 08:29:57;;;;;;;;;;;;;;;8.97;100.00;101413.22;5084352;28;20012;-60
2023/01/02 08:32:23;;;;;;;;;;;;;;;9.00;100.00;101402.34;5078444;28;20014;-61
2023/01/02 08:34:48;;;;;;;;;;;;;;;9.02;100.00;101415.44;5084617;28;19916;-62
2023/01/02 08:37:13;;;;;;;;;;;;;;;9.00;100.00;101425.34;5086631;28;19927;-61
2023/01/02 08:39:38;;;;;;;;;;;;;;;9.00;100.00;101428.81;5083677;28;19959;-60
2023/01/02 08:42:04;;;;;;;;;;;;;;;8.99;100.00;101424.50;5081558;28;19912;-61
2023/01/02 08:44:29;;;;;;;;;;;;;;;8.98;100.00;101424.66;5093666;28;19924;-60
2023/01/02 08:46:54;;;;;;;;;;;;;;;8.95;100.00;101428.41;5095242;28;19986;-61
2023/01/02 08:49:20;;;;;;;;;;;;;;;8.98;100.00;101437.91;5087820;28;19924;-61
2023/01/02 08:51:45;;;;;;;;;;;;;;;8.97;100.00;101442.38;5091113;28;19923;-62
2023/01/02 08:54:10;;;;;;;;;;;;;;;8.97;100.00;101452.97;5086205;28;19912;-61
2023/01/02 08:56:36;;;;;;;;;;;;;;;8.93;100.00;101454.19;5083228;28;20015;-61
2023/01/02 08:59:05;;;;;;;;;;;;;;;8.92;100.00;101459.66;5077953;28;19912;-64
2023/01/02 09:01:31;;;;;;;;;;;;;;;8.90;100.00;101465.09;5081713;28;19923;-60
2023/01/02 09:03:57;;;;;;;;;;;;;;;8.88;100.00;101467.06;5090046;28;19947;-60
2023/01/02 09:06:24;;;;;;;;;;;;;;;8.94;100.00;101462.97;5088181;28;20483;-60
2023/01/02 09:08:51;;;;;;;;;;;;;;;8.90;100.00;101467.75;5081827;28;19927;-63
2023/01/02 09:11:17;;;;;;;;;;;;;;;8.88;100.00;101472.34;5075293;28;19959;-61
2023/01/02 09:13:43;;;;;;;;;;;;;;;8.86;100.00;101470.81;5077313;28;19912;-62
2023/01/02 09:16:08;;;;;;;;;;;;;;;8.91;100.00;101480.00;5080600;28;19935;-62
2023/01/02 09:18:34;;;;;;;;;;;;;;;8.92;100.00;101494.09;5082194;28;19912;-63
2023/01/02 09:20:59;;;;;;;;;;;;;;;8.93;100.00;101493.94;5081769;28;19913;-62
2023/01/02 09:23:24;;;;;;;;;;;;;;;8.90;100.00;101504.00;5086982;28;19923;-61
2023/01/02 09:25:49;;;;;;;;;;;;;;;8.89;100.00;101503.16;5082201;28;19988;-60
2023/01/02 09:28:14;;;;;;;;;;;;;;;8.95;100.00;101521.13;5083365;28;19924;-61
2023/01/02 09:30:39;;;;;;;;;;;;;;;8.90;100.00;101535.78;5079290;28;19969;-62
2023/01/02 09:33:05;;;;;;;;;;;;;;;8.84;100.00;101531.06;5084631;28;19916;-61
2023/01/02 09:35:30;;;;;;;;;;;;;;;8.85;100.00;101527.44;5082329;28;21217;-62
2023/01/02 09:37:55;;;;;;;;;;;;;;;8.89;100.00;101528.81;5081108;28;20407;-61
2023/01/02 09:40:21;;;;;;;;;;;;;;;8.87;100.00;101530.75;5074823;28;19927;-61
2023/01/02 09:42:49;;;;;;;;;;;;;;;8.85;100.00;101541.50;5080662;28;19912;-63
2023/01/02 09:45:14;;;;;;;;;;;;;;;8.85;100.00;101546.81;5075583;28;19912;-61
2023/01/02 09:47:40;;;;;;;;;;;;;;;8.87;100.00;101546.66;5076798;28;20061;-61
2023/01/02 09:50:12;;;;;;;;;;;;;;;8.82;100.00;101544.44;5081471;28;19911;-61
2023/01/02 09:52:40;;;;;;;;;;;;;;;8.84;100.00;101549.59;5081820;28;19923;-61
2023/01/02 09:55:26;;;;;;;;;;;;;;;8.80;100.00;101556.16;5085590;28;19920;-61
2023/01/02 09:58:05;;;;;;;;;;;;;;;8.78;100.00;101560.75;5084246;28;20707;-61
2023/01/02 10:00:34;;;;;;;;;;;;;;;8.75;100.00;101567.19;5078806;28;19916;-61
2023/01/02 10:03:18;;;;;;;;;;;;;;;8.73;100.00;101561.19;5081281;28;19995;-61
2023/01/02 10:05:57;;;;;;;;;;;;;;;8.70;100.00;101566.75;5080557;28;19916;-64
2023/01/02 10:08:25;;;;;;;;;;;;;;;8.77;100.00;101559.09;5076364;28;19939;-60
2023/01/02 10:11:09;;;;;;;;;;;;;;;8.79;100.00;101552.66;5076483;28;19939;-59
2023/01/02 10:13:40;;;;;;;;;;;;;;;8.76;100.00;101565.34;5082444;28;20045;-61
2023/01/02 10:16:06;;;;;;;;;;;;;;;8.70;100.00;101569.41;5076707;28;19952;-60
2023/01/02 10:18:37;;;;;;;;;;;;;;;8.66;99.94;101575.94;5079807;28;21521;-62
2023/01/02 10:21:05;;;;;;;;;;;;;;;8.69;100.00;101573.03;5080664;28;20794;-60
2023/01/02 10:23:41;;;;;;;;;;;;;;;8.70;99.93;101569.41;5074721;28;19927;-62
2023/01/02 10:26:11;;;;;;;;;;;;;;;8.71;100.00;101567.59;5088068;28;19925;-60
2023/01/02 10:28:41;;;;;;;;;;;;;;;8.71;100.00;101568.44;5078247;28;20276;-61
2023/01/02 10:31:20;;;;;;;;;;;;;;;8.73;100.00;101565.66;5083069;28;19916;-61
2023/01/02 10:33:54;;;;;;;;;;;;;;;8.72;100.00;101570.09;5078014;28;19920;-62
2023/01/02 10:36:25;;;;;;;;;;;;;;;8.73;100.00;101574.44;5092878;28;19923;-62
2023/01/02 10:38:51;;;;;;;;;;;;;;;8.75;100.00;101591.00;5087969;28;19912;-61
2023/01/02 10:41:17;;;;;;;;;;;;;;;8.74;99.98;101599.09;5081585;28;20404;-60
2023/01/02 10:43:42;;;;;;;;;;;;;;;8.73;100.00;101600.91;5076412;28;19913;-61
2023/01/02 10:46:08;;;;;;;;;;;;;;;8.72;100.00;101601.03;5089891;28;20419;-61
2023/01/02 10:48:36;;;;;;;;;;;;;;;8.73;100.00;101600.06;5084630;28;19946;-58
2023/01/02 10:51:02;;;;;;;;;;;;;;;8.72;100.00;101588.66;5086219;28;19912;-61
2023/01/02 10:53:32;;;;;;;;;;;;;;;8.74;99.84;101584.03;5081319;28;19920;-61
2023/01/02 10:56:04;;;;;;;;;;;;;;;8.76;100.00;101587.38;5083273;28;19916;-59
2023/01/02 10:58:31;;;;;;;;;;;;;;;8.79;100.00;101596.84;5086562;28;20021;-59
2023/01/02 11:01:04;;;;;;;;;;;;;;;8.81;100.00;101595.75;5082414;28;19916;-61
2023/01/02 11:03:29;;;;;;;;;;;;;;;8.83;100.00;101601.72;5075709;28;20382;-62
2023/01/02 11:05:56;;;;;;;;;;;;;;;8.88;100.00;101609.25;5080666;28;20038;-62
2023/01/02 11:08:22;;;;;;;;;;;;;;;8.89;100.00;101614.41;5077554;28;20379;-60
2023/01/02 11:10:47;;;;;;;;;;;;;;;8.89;99.99;101616.22;5079199;28;19916;-61
2023/01/02 11:13:14;;;;;;;;;;;;;;;8.90;100.00;101615.25;5085213;28;20002;-61
2023/01/02 11:15:46;;;;;;;;;;;;;;;8.89;100.00;101630.28;5077642;28;19913;-61
2023/01/02 11:18:16;;;;;;;;;;;;;;;8.91;100.00;101636.28;5075630;28;19919;-61
2023/01/02 11:20:48;;;;;;;;;;;;;;;8.92;100.00;101626.53;5084763;28;19923;-60
2023/01/02 11:23:14;;;;;;;;;;;;;;;8.92;100.00;101621.22;5076309;28;20284;-61
2023/01/02 11:25:40;;;;;;;;;;;;;;;8.92;100.00;101624.72;5075593;28;20440;-61
2023/01/02 11:28:12;;;;;;;;;;;;;;;8.91;100.00;101623.03;5075807;28;19967;-60
2023/01/02 11:30:42;;;;;;;;;;;;;;;8.92;100.00;101626.53;5083913;28;20588;-60
2023/01/02 11:33:23;;;;;;;;;;;;;;;8.94;100.00;101635.16;5082231;28;19920;-61
2023/01/02 11:35:49;;;;;;;;;;;;;;;8.95;100.00;101635.03;5082917;28;20391;-60
2023/01/02 11:38:16;;;;;;;;;;;;;;;8.96;100.00;101644.69;5085074;28;20003;-61
2023/01/02 11:40:52;;;;;;;;;;;;;;;8.98;100.00;101633.94;5073011;28;19916;-61
2023/01/02 11:46:08;;;;;;;;;;;;;;;8.99;99.75;101649.69;5087100;28;19927;-60
2023/01/02 11:48:35;;;;;;;;;;;;;;;9.00;99.79;101640.75;5081490;28;20016;-62
2023/01/02 11:51:00;;;;;;;;;;;;;;;9.01;99.46;101644.25;5078603;28;20019;-64
2023/01/02 11:53:28;;;;;;;;;;;;;;;9.00;99.44;101626.69;5080177;28;20071;-62
2023/01/02 11:55:55;;;;;;;;;;;;;;;9.00;99.00;101626.69;5084914;28;19916;-62
2023/01/02 11:58:29;;;;;;;;;;;;;;;9.00;98.94;101643.41;5092591;28;20291;-60
2023/01/02 12:01:20;;;;;;;;;;;;;;;9.02;98.92;101645.91;5077216;28;20385;-60
2023/01/02 12:03:46;;;;;;;;;;;;;;;9.03;99.30;101657.34;5086953;28;20014;-62
2023/01/02 12:06:22;;;;;;;;;;;;;;;9.08;99.32;101657.75;5086934;28;20015;-61
2023/01/02 12:08:59;;;;;;;;;;;;;;;9.06;99.03;101659.72;5082800;28;19919;-61
2023/01/02 12:11:51;;;;;;;;;;;;;;;9.06;99.11;101655.25;5079754;28;20007;-61
2023/01/02 12:14:27;;;;;;;;;;;;;;;9.07;99.26;101658.75;5074863;28;21002;-62
2023/01/02 12:16:55;;;;;;;;;;;;;;;9.09;99.00;101657.63;5084995;28;19916;-62
2023/01/02 12:19:20;;;;;;;;;;;;;;;9.09;99.12;101657.63;5079869;28;19921;-61
2023/01/02 12:22:03;;;;;;;;;;;;;;;9.06;99.00;101654.41;5083655;28;19927;-61
2023/01/02 12:24:28;;;;;;;;;;;;;;;9.06;98.63;101657.06;5075516;28;19916;-61
2023/01/02 12:26:56;;;;;;;;;;;;;;;9.05;98.47;101644.81;5071648;28;19920;-58
2023/01/02 12:29:29;;;;;;;;;;;;;;;9.04;97.84;101646.63;5080333;28;19920;-60
2023/01/02 12:32:07;;;;;;;;;;;;;;;9.05;98.14;101653.59;5077453;28;20376;-61
2023/01/02 12:34:37;;;;;;;;;;;;;;;9.06;98.20;101652.59;5083851;28;20006;-61
2023/01/02 12:37:17;;;;;;;;;;;;;;;9.06;97.43;101654.41;5080270;28;20003;-62
2023/01/02 12:39:58;;;;;;;;;;;;;;;9.08;97.67;101655.13;5079846;28;19932;-62
2023/01/02 12:42:41;;;;;;;;;;;;;;;9.08;97.61;101657.75;5084413;28;19912;-61
2023/01/02 12:45:21;;;;;;;;;;;;;;;9.08;97.19;101666.53;5088398;28;19916;-61
2023/01/02 12:48:13;;;;;;;;;;;;;;;9.08;97.26;101673.66;5093100;28;19916;-61